sensor_id;sensor_type;location;lat;lon;timestamp;pressure;altitude;pressure_sealevel;temperature;humidity
10480;BME280;12789;42.610;23.040;2022-10-15T00:02:08;93830.94;;;10.22;100.00
10480;BME280;12789;42.610;23.040;2022-10-15T00:04:35;93821.09;;;10.16;100.00
10480;BME280;12789;42.610;23.040;2022-10-15T00:07:02;93815.41;;;10.22;100.00
10480;BME280;12789;42.610;23.040;2022-10-15T00:09:31;93815.97;;;10.06;100.00
10480;BME280;12789;42.610;23.040;2022-10-15T00:11:58;93813.50;;;10.05;100.00
10480;BME280;12789;42.610;23.040;2022-10-15T00:14:25;93819.34;;;10.07;100.00
10480;BME280;12789;42.610;23.040;2022-10-15T00:16:52;93815.28;;;10.04;100.00
10480;BME280;12789;42.610;23.040;2022-10-15T00:19:19;93814.31;;;10.05;100.00
10480;BME280;12789;42.610;23.040;2022-10-15T00:21:46;93774.22;;;9.90;100.00
10480;BME280;12789;42.610;23.040;2022-10-15T00:24:13;93809.53;;;10.20;100.00
10480;BME280;12789;42.610;23.040;2022-10-15T00:26:41;93807.22;;;10.07;100.00
10480;BME280;12789;42.610;23.040;2022-10-15T00:29:08;93803.97;;;10.05;100.00
10480;BME280;12789;42.610;23.040;2022-10-15T00:31:35;93817.56;;;9.98;100.00
10480;BME280;12789;42.610;23.040;2022-10-15T00:34:02;93821.63;;;9.91;100.00
10480;BME280;12789;42.610;23.040;2022-10-15T00:36:31;93814.56;;;9.93;100.00
10480;BME280;12789;42.610;23.040;2022-10-15T00:38:59;93812.50;;;9.96;100.00
10480;BME280;12789;42.610;23.040;2022-10-15T00:41:27;93800.09;;;9.90;100.00
10480;BME280;12789;42.610;23.040;2022-10-15T00:43:57;93802.81;;;9.70;100.00
10480;BME280;12789;42.610;23.040;2022-10-15T00:46:29;93803.38;;;9.92;100.00
10480;BME280;12789;42.610;23.040;2022-10-15T00:48:59;93799.19;;;10.01;100.00
10480;BME280;12789;42.610;23.040;2022-10-15T00:51:30;93796.84;;;9.98;100.00
10480;BME280;12789;42.610;23.040;2022-10-15T00:53:59;93797.66;;;9.79;100.00
10480;BME280;12789;42.610;23.040;2022-10-15T00:56:30;93802.41;;;9.74;100.00
10480;BME280;12789;42.610;23.040;2022-10-15T00:59:00;93800.66;;;9.65;100.00
10480;BME280;12789;42.610;23.040;2022-10-15T01:01:27;93808.00;;;9.70;100.00
10480;BME280;12789;42.610;23.040;2022-10-15T01:03:55;93799.53;;;9.68;100.00
10480;BME280;12789;42.610;23.040;2022-10-15T01:06:23;93800.63;;;9.75;100.00
10480;BME280;12789;42.610;23.040;2022-10-15T01:08:50;93791.75;;;9.58;100.00
10480;BME280;12789;42.610;23.040;2022-10-15T01:11:27;93787.97;;;9.81;100.00
10480;BME280;12789;42.610;23.040;2022-10-15T01:14:12;93792.47;;;9.70;100.00
10480;BME280;12789;42.610;23.040;2022-10-15T01:16:44;93791.34;;;9.44;100.00
10480;BME280;12789;42.610;23.040;2022-10-15T01:19:24;93795.47;;;9.56;100.00
10480;BME280;12789;42.610;23.040;2022-10-15T01:21:58;93789.06;;;9.69;100.00
10480;BME280;12789;42.610;23.040;2022-10-15T01:24:55;93785.09;;;9.75;100.00
10480;BME280;12789;42.610;23.040;2022-10-15T01:27:34;93788.94;;;9.90;100.00
10480;BME280;12789;42.610;23.040;2022-10-15T01:30:24;93791.09;;;9.66;100.00
10480;BME280;12789;42.610;23.040;2022-10-15T01:35:47;93789.47;;;9.74;100.00
10480;BME280;12789;42.610;23.040;2022-10-15T01:45:05;93808.72;;;9.23;100.00
10480;BME280;12789;42.610;23.040;2022-10-15T01:47:36;93788.88;;;9.23;100.00
10480;BME280;12789;42.610;23.040;2022-10-15T01:50:07;93794.91;;;9.43;100.00
10480;BME280;12789;42.610;23.040;2022-10-15T01:52:37;93789.19;;;9.68;100.00
10480;BME280;12789;42.610;23.040;2022-10-15T01:55:09;93798.94;;;9.36;100.00
10480;BME280;12789;42.610;23.040;2022-10-15T01:57:41;93795.59;;;9.64;100.00
10480;BME280;12789;42.610;23.040;2022-10-15T02:00:09;93798.41;;;9.42;100.00
10480;BME280;12789;42.610;23.040;2022-10-15T02:02:37;93802.25;;;9.57;100.00
10480;BME280;12789;42.610;23.040;2022-10-15T02:05:08;93799.00;;;9.55;100.00
10480;BME280;12789;42.610;23.040;2022-10-15T02:07:43;93791.25;;;9.64;100.00
10480;BME280;12789;42.610;23.040;2022-10-15T02:10:17;93786.59;;;9.68;100.00
10480;BME280;12789;42.610;23.040;2022-10-15T02:12:54;93796.13;;;9.77;100.00
10480;BME280;12789;42.610;23.040;2022-10-15T02:15:31;93800.66;;;9.65;100.00
10480;BME280;12789;42.610;23.040;2022-10-15T02:18:06;93794.06;;;9.61;100.00
10480;BME280;12789;42.610;23.040;2022-10-15T02:20:42;93802.69;;;9.62;100.00
10480;BME280;12789;42.610;23.040;2022-10-15T02:23:16;93789.00;;;9.31;100.00
10480;BME280;12789;42.610;23.040;2022-10-15T02:25:45;93801.72;;;9.63;100.00
10480;BME280;12789;42.610;23.040;2022-10-15T02:28:14;93806.47;;;9.48;100.00
10480;BME280;12789;42.610;23.040;2022-10-15T02:30:47;93800.88;;;9.43;100.00
10480;BME280;12789;42.610;23.040;2022-10-15T02:33:19;93804.63;;;9.11;100.00
10480;BME280;12789;42.610;23.040;2022-10-15T02:35:48;93801.75;;;9.14;100.00
10480;BME280;12789;42.610;23.040;2022-10-15T02:38:18;93802.19;;;9.19;100.00
10480;BME280;12789;42.610;23.040;2022-10-15T02:40:47;93797.75;;;9.00;100.00
10480;BME280;12789;42.610;23.040;2022-10-15T02:43:15;93797.25;;;8.77;100.00
10480;BME280;12789;42.610;23.040;2022-10-15T02:45:45;93804.53;;;8.92;100.00
10480;BME280;12789;42.610;23.040;2022-10-15T02:48:12;93803.06;;;8.99;100.00
10480;BME280;12789;42.610;23.040;2022-10-15T02:50:40;93810.66;;;8.91;100.00
10480;BME280;12789;42.610;23.040;2022-10-15T02:53:07;93799.72;;;8.78;100.00
10480;BME280;12789;42.610;23.040;2022-10-15T02:55:34;93811.78;;;8.68;100.00
10480;BME280;12789;42.610;23.040;2022-10-15T02:58:01;93794.38;;;8.70;100.00
10480;BME280;12789;42.610;23.040;2022-10-15T03:00:28;93806.69;;;8.57;100.00
10480;BME280;12789;42.610;23.040;2022-10-15T03:02:55;93801.09;;;8.52;100.00
10480;BME280;12789;42.610;23.040;2022-10-15T03:05:22;93804.59;;;8.51;100.00
10480;BME280;12789;42.610;23.040;2022-10-15T03:07:50;93806.50;;;8.49;100.00
10480;BME280;12789;42.610;23.040;2022-10-15T03:10:18;93804.09;;;8.57;100.00
10480;BME280;12789;42.610;23.040;2022-10-15T03:12:44;93800.31;;;8.61;100.00
10480;BME280;12789;42.610;23.040;2022-10-15T03:15:12;93807.66;;;8.36;100.00
10480;BME280;12789;42.610;23.040;2022-10-15T03:17:39;93823.81;;;8.38;100.00
10480;BME280;12789;42.610;23.040;2022-10-15T03:20:06;93801.91;;;8.12;100.00
10480;BME280;12789;42.610;23.040;2022-10-15T03:22:33;93817.22;;;8.24;100.00
10480;BME280;12789;42.610;23.040;2022-10-15T03:25:02;93797.53;;;8.12;100.00
10480;BME280;12789;42.610;23.040;2022-10-15T03:27:28;93809.16;;;8.18;100.00
10480;BME280;12789;42.610;23.040;2022-10-15T03:29:55;93811.03;;;7.95;100.00
10480;BME280;12789;42.610;23.040;2022-10-15T03:32:22;93811.53;;;8.10;100.00
10480;BME280;12789;42.610;23.040;2022-10-15T03:34:49;93810.25;;;8.04;100.00
10480;BME280;12789;42.610;23.040;2022-10-15T03:37:16;93816.88;;;7.97;100.00
10480;BME280;12789;42.610;23.040;2022-10-15T03:39:43;93825.13;;;7.91;100.00
10480;BME280;12789;42.610;23.040;2022-10-15T03:42:11;93823.91;;;7.95;100.00
10480;BME280;12789;42.610;23.040;2022-10-15T03:44:39;93835.81;;;8.07;100.00
10480;BME280;12789;42.610;23.040;2022-10-15T03:47:06;93822.47;;;8.02;100.00
10480;BME280;12789;42.610;23.040;2022-10-15T03:49:33;93838.66;;;8.04;100.00
10480;BME280;12789;42.610;23.040;2022-10-15T03:52:00;93821.97;;;8.08;100.00
10480;BME280;12789;42.610;23.040;2022-10-15T03:54:27;93829.72;;;8.08;100.00
10480;BME280;12789;42.610;23.040;2022-10-15T03:56:53;93834.75;;;8.10;100.00
10480;BME280;12789;42.610;23.040;2022-10-15T03:59:22;93826.34;;;7.97;100.00
10480;BME280;12789;42.610;23.040;2022-10-15T04:01:49;93833.13;;;7.77;100.00
10480;BME280;12789;42.610;23.040;2022-10-15T04:04:15;93834.53;;;8.02;100.00
10480;BME280;12789;42.610;23.040;2022-10-15T04:06:42;93834.00;;;7.98;100.00
10480;BME280;12789;42.610;23.040;2022-10-15T04:09:12;93832.88;;;7.80;100.00
10480;BME280;12789;42.610;23.040;2022-10-15T04:11:39;93834.22;;;7.75;100.00
10480;BME280;12789;42.610;23.040;2022-10-15T04:14:07;93835.75;;;7.66;100.00
10480;BME280;12789;42.610;23.040;2022-10-15T04:16:36;93839.75;;;7.59;100.00
10480;BME280;12789;42.610;23.040;2022-10-15T04:19:02;93834.75;;;7.78;100.00
10480;BME280;12789;42.610;23.040;2022-10-15T04:21:29;93834.56;;;7.70;100.00
10480;BME280;12789;42.610;23.040;2022-10-15T04:23:56;93843.25;;;7.69;100.00
10480;BME280;12789;42.610;23.040;2022-10-15T04:26:23;93833.16;;;7.66;100.00
10480;BME280;12789;42.610;23.040;2022-10-15T04:28:50;93848.59;;;7.77;100.00
10480;BME280;12789;42.610;23.040;2022-10-15T04:31:17;93859.16;;;7.85;100.00
10480;BME280;12789;42.610;23.040;2022-10-15T04:33:48;93854.25;;;7.71;100.00
10480;BME280;12789;42.610;23.040;2022-10-15T04:36:15;93868.94;;;7.71;100.00
10480;BME280;12789;42.610;23.040;2022-10-15T04:38:42;93866.69;;;7.66;100.00
10480;BME280;12789;42.610;23.040;2022-10-15T04:41:10;93870.94;;;7.56;100.00
10480;BME280;12789;42.610;23.040;2022-10-15T04:43:38;93865.44;;;7.50;100.00
10480;BME280;12789;42.610;23.040;2022-10-15T04:46:06;93872.34;;;7.60;100.00
10480;BME280;12789;42.610;23.040;2022-10-15T04:48:36;93879.00;;;7.63;100.00
10480;BME280;12789;42.610;23.040;2022-10-15T04:51:05;93884.44;;;7.49;100.00
10480;BME280;12789;42.610;23.040;2022-10-15T04:53:33;93873.00;;;7.09;100.00
10480;BME280;12789;42.610;23.040;2022-10-15T04:56:01;93881.50;;;7.53;100.00
10480;BME280;12789;42.610;23.040;2022-10-15T04:58:30;93876.81;;;7.58;100.00
10480;BME280;12789;42.610;23.040;2022-10-15T05:01:00;93875.63;;;7.62;100.00
10480;BME280;12789;42.610;23.040;2022-10-15T05:03:28;93868.09;;;7.70;100.00
10480;BME280;12789;42.610;23.040;2022-10-15T05:06:00;93875.00;;;7.81;100.00
10480;BME280;12789;42.610;23.040;2022-10-15T05:08:29;93868.28;;;7.89;100.00
10480;BME280;12789;42.610;23.040;2022-10-15T05:10:59;93879.06;;;7.94;100.00
10480;BME280;12789;42.610;23.040;2022-10-15T05:13:27;93897.66;;;7.98;100.00
10480;BME280;12789;42.610;23.040;2022-10-15T05:15:54;93884.66;;;7.99;100.00
10480;BME280;12789;42.610;23.040;2022-10-15T05:18:21;93897.13;;;7.94;100.00
10480;BME280;12789;42.610;23.040;2022-10-15T05:20:48;93886.50;;;8.08;100.00
10480;BME280;12789;42.610;23.040;2022-10-15T05:23:15;93891.75;;;7.86;100.00
10480;BME280;12789;42.610;23.040;2022-10-15T05:25:43;93905.69;;;7.84;100.00
10480;BME280;12789;42.610;23.040;2022-10-15T05:28:10;93888.63;;;7.72;100.00
10480;BME280;12789;42.610;23.040;2022-10-15T05:30:37;93889.16;;;7.33;100.00
10480;BME280;12789;42.610;23.040;2022-10-15T05:33:04;93891.81;;;7.53;100.00
10480;BME280;12789;42.610;23.040;2022-10-15T05:35:30;93891.44;;;7.69;100.00
10480;BME280;12789;42.610;23.040;2022-10-15T05:37:57;93890.84;;;7.65;100.00
10480;BME280;12789;42.610;23.040;2022-10-15T05:40:24;93868.97;;;7.49;100.00
10480;BME280;12789;42.610;23.040;2022-10-15T05:42:52;93887.25;;;7.46;100.00
10480;BME280;12789;42.610;23.040;2022-10-15T05:45:19;93906.56;;;7.62;100.00
10480;BME280;12789;42.610;23.040;2022-10-15T05:47:46;93902.06;;;7.75;100.00
10480;BME280;12789;42.610;23.040;2022-10-15T05:50:13;93900.22;;;7.66;100.00
10480;BME280;12789;42.610;23.040;2022-10-15T05:52:40;93905.00;;;7.82;100.00
10480;BME280;12789;42.610;23.040;2022-10-15T05:55:07;93899.00;;;7.92;100.00
10480;BME280;12789;42.610;23.040;2022-10-15T05:58:10;93909.72;;;8.19;100.00
10480;BME280;12789;42.610;23.040;2022-10-15T06:00:37;93896.38;;;8.03;100.00
10480;BME280;12789;42.610;23.040;2022-10-15T06:03:04;93906.31;;;8.19;100.00
10480;BME280;12789;42.610;23.040;2022-10-15T06:05:31;93914.09;;;8.39;100.00
10480;BME280;12789;42.610;23.040;2022-10-15T06:07:58;93901.94;;;8.30;100.00
10480;BME280;12789;42.610;23.040;2022-10-15T06:10:25;93905.22;;;8.53;100.00
10480;BME280;12789;42.610;23.040;2022-10-15T06:12:53;93918.59;;;8.78;100.00
10480;BME280;12789;42.610;23.040;2022-10-15T06:15:21;93913.72;;;8.85;100.00
10480;BME280;12789;42.610;23.040;2022-10-15T06:17:51;93915.16;;;8.98;100.00
10480;BME280;12789;42.610;23.040;2022-10-15T06:20:17;93935.94;;;9.17;100.00
10480;BME280;12789;42.610;23.040;2022-10-15T06:22:45;93914.47;;;9.56;100.00
10480;BME280;12789;42.610;23.040;2022-10-15T06:25:12;93916.13;;;9.66;100.00
10480;BME280;12789;42.610;23.040;2022-10-15T06:27:39;93918.72;;;9.76;100.00
10480;BME280;12789;42.610;23.040;2022-10-15T06:30:07;93921.72;;;10.01;100.00
10480;BME280;12789;42.610;23.040;2022-10-15T06:32:36;93912.56;;;10.07;100.00
10480;BME280;12789;42.610;23.040;2022-10-15T06:35:03;93920.63;;;10.32;100.00
10480;BME280;12789;42.610;23.040;2022-10-15T06:37:30;93927.47;;;10.61;100.00
10480;BME280;12789;42.610;23.040;2022-10-15T06:39:57;93928.66;;;10.67;100.00
10480;BME280;12789;42.610;23.040;2022-10-15T06:42:24;93928.00;;;10.84;100.00
10480;BME280;12789;42.610;23.040;2022-10-15T06:44:51;93933.34;;;11.28;100.00
10480;BME280;12789;42.610;23.040;2022-10-15T06:47:17;93924.50;;;11.12;100.00
10480;BME280;12789;42.610;23.040;2022-10-15T06:49:46;93927.44;;;10.99;100.00
10480;BME280;12789;42.610;23.040;2022-10-15T06:52:13;93883.63;;;10.87;100.00
10480;BME280;12789;42.610;23.040;2022-10-15T06:54:40;93921.56;;;11.43;100.00
10480;BME280;12789;42.610;23.040;2022-10-15T06:57:07;93935.38;;;11.34;100.00
10480;BME280;12789;42.610;23.040;2022-10-15T06:59:35;93922.09;;;11.56;100.00
10480;BME280;12789;42.610;23.040;2022-10-15T07:02:02;93925.34;;;11.49;100.00
10480;BME280;12789;42.610;23.040;2022-10-15T07:04:29;93932.94;;;11.69;100.00
10480;BME280;12789;42.610;23.040;2022-10-15T07:06:58;93921.47;;;11.72;100.00
10480;BME280;12789;42.610;23.040;2022-10-15T07:09:25;93932.59;;;11.91;100.00
10480;BME280;12789;42.610;23.040;2022-10-15T07:11:52;93942.31;;;11.89;100.00
10480;BME280;12789;42.610;23.040;2022-10-15T07:14:19;93933.53;;;12.34;100.00
10480;BME280;12789;42.610;23.040;2022-10-15T07:16:46;93905.38;;;12.12;100.00
10480;BME280;12789;42.610;23.040;2022-10-15T07:19:13;93923.00;;;12.36;100.00
10480;BME280;12789;42.610;23.040;2022-10-15T07:21:40;93915.50;;;12.85;100.00
10480;BME280;12789;42.610;23.040;2022-10-15T07:24:09;93922.56;;;12.93;100.00
10480;BME280;12789;42.610;23.040;2022-10-15T07:26:36;93924.41;;;13.26;100.00
10480;BME280;12789;42.610;23.040;2022-10-15T07:29:04;93922.16;;;12.88;100.00
10480;BME280;12789;42.610;23.040;2022-10-15T07:31:31;93926.22;;;13.00;100.00
10480;BME280;12789;42.610;23.040;2022-10-15T07:33:58;93917.88;;;13.22;100.00
10480;BME280;12789;42.610;23.040;2022-10-15T07:36:26;93929.22;;;13.38;100.00
10480;BME280;12789;42.610;23.040;2022-10-15T07:38:52;93926.59;;;13.63;100.00
10480;BME280;12789;42.610;23.040;2022-10-15T07:41:21;93913.72;;;14.37;100.00
10480;BME280;12789;42.610;23.040;2022-10-15T07:43:50;93900.59;;;14.13;100.00
10480;BME280;12789;42.610;23.040;2022-10-15T07:46:17;93926.72;;;13.87;100.00
10480;BME280;12789;42.610;23.040;2022-10-15T07:48:44;93916.28;;;13.79;100.00
10480;BME280;12789;42.610;23.040;2022-10-15T07:51:11;93923.91;;;14.14;100.00
10480;BME280;12789;42.610;23.040;2022-10-15T07:53:38;93920.25;;;13.99;100.00
10480;BME280;12789;42.610;23.040;2022-10-15T07:56:07;93927.50;;;14.13;100.00
10480;BME280;12789;42.610;23.040;2022-10-15T07:58:38;93920.25;;;14.41;100.00
10480;BME280;12789;42.610;23.040;2022-10-15T08:01:06;93918.00;;;14.70;100.00
10480;BME280;12789;42.610;23.040;2022-10-15T08:03:34;93921.63;;;14.77;100.00
10480;BME280;12789;42.610;23.040;2022-10-15T08:06:04;93926.50;;;14.88;100.00
10480;BME280;12789;42.610;23.040;2022-10-15T08:08:32;93922.91;;;15.04;100.00
10480;BME280;12789;42.610;23.040;2022-10-15T08:11:04;93924.41;;;15.31;100.00
10480;BME280;12789;42.610;23.040;2022-10-15T08:13:31;93874.94;;;15.37;100.00
10480;BME280;12789;42.610;23.040;2022-10-15T08:15:59;93913.28;;;15.29;100.00
10480;BME280;12789;42.610;23.040;2022-10-15T08:18:27;93911.59;;;15.68;100.00
10480;BME280;12789;42.610;23.040;2022-10-15T08:20:57;93905.16;;;15.94;100.00
10480;BME280;12789;42.610;23.040;2022-10-15T08:23:24;93882.66;;;16.16;100.00
10480;BME280;12789;42.610;23.040;2022-10-15T08:25:52;93902.88;;;15.83;100.00
10480;BME280;12789;42.610;23.040;2022-10-15T08:28:19;93900.44;;;15.82;100.00
10480;BME280;12789;42.610;23.040;2022-10-15T08:30:46;93880.22;;;15.68;100.00
10480;BME280;12789;42.610;23.040;2022-10-15T08:33:15;93909.25;;;15.89;100.00
10480;BME280;12789;42.610;23.040;2022-10-15T08:35:42;93895.03;;;15.91;100.00
10480;BME280;12789;42.610;23.040;2022-10-15T08:38:09;93891.00;;;15.73;100.00
10480;BME280;12789;42.610;23.040;2022-10-15T08:40:36;93887.59;;;16.03;100.00
10480;BME280;12789;42.610;23.040;2022-10-15T08:43:13;93880.53;;;16.50;100.00
10480;BME280;12789;42.610;23.040;2022-10-15T08:45:45;93888.59;;;17.07;100.00
10480;BME280;12789;42.610;23.040;2022-10-15T08:48:18;93885.66;;;16.65;100.00
10480;BME280;12789;42.610;23.040;2022-10-15T08:50:51;93892.00;;;16.93;100.00
10480;BME280;12789;42.610;23.040;2022-10-15T08:53:21;93880.53;;;16.50;100.00
10480;BME280;12789;42.610;23.040;2022-10-15T08:55:54;93887.25;;;16.14;100.00
10480;BME280;12789;42.610;23.040;2022-10-15T08:58:26;93894.84;;;17.06;100.00
10480;BME280;12789;42.610;23.040;2022-10-15T09:00:58;93882.09;;;17.03;100.00
10480;BME280;12789;42.610;23.040;2022-10-15T09:03:35;93890.06;;;17.61;100.00
10480;BME280;12789;42.610;23.040;2022-10-15T09:06:10;93885.66;;;17.47;100.00
10480;BME280;12789;42.610;23.040;2022-10-15T09:08:47;93876.88;;;17.40;100.00
10480;BME280;12789;42.610;23.040;2022-10-15T09:11:22;93875.91;;;17.56;88.91
10480;BME280;12789;42.610;23.040;2022-10-15T09:13:54;93868.56;;;17.14;86.40
10480;BME280;12789;42.610;23.040;2022-10-15T09:16:25;93864.75;;;17.97;85.60
10480;BME280;12789;42.610;23.040;2022-10-15T09:18:57;93864.53;;;18.42;83.08
10480;BME280;12789;42.610;23.040;2022-10-15T09:21:30;93868.06;;;17.70;81.55
10480;BME280;12789;42.610;23.040;2022-10-15T09:24:01;93863.47;;;18.22;82.61
10480;BME280;12789;42.610;23.040;2022-10-15T09:26:46;93862.44;;;18.94;81.44
10480;BME280;12789;42.610;23.040;2022-10-15T09:29:21;93863.06;;;18.54;80.38
10480;BME280;12789;42.610;23.040;2022-10-15T09:31:57;93845.66;;;18.32;79.76
10480;BME280;12789;42.610;23.040;2022-10-15T09:34:34;93846.38;;;19.24;78.69
10480;BME280;12789;42.610;23.040;2022-10-15T09:37:08;93857.16;;;19.15;79.04
10480;BME280;12789;42.610;23.040;2022-10-15T09:39:53;93860.59;;;18.88;88.75
10480;BME280;12789;42.610;23.040;2022-10-15T09:42:28;93854.28;;;19.10;77.48
10480;BME280;12789;42.610;23.040;2022-10-15T09:44:58;93855.66;;;19.81;77.39
10480;BME280;12789;42.610;23.040;2022-10-15T09:47:27;93842.63;;;20.01;75.54
10480;BME280;12789;42.610;23.040;2022-10-15T09:49:56;93852.50;;;19.99;69.14
10480;BME280;12789;42.610;23.040;2022-10-15T09:52:39;93842.16;;;19.09;69.01
10480;BME280;12789;42.610;23.040;2022-10-15T09:55:22;93834.81;;;20.20;69.43
10480;BME280;12789;42.610;23.040;2022-10-15T09:57:58;93831.97;;;20.15;68.44
10480;BME280;12789;42.610;23.040;2022-10-15T10:00:51;93829.19;;;20.36;67.92
10480;BME280;12789;42.610;23.040;2022-10-15T10:03:21;93836.84;;;19.51;66.90
10480;BME280;12789;42.610;23.040;2022-10-15T10:05:50;93840.81;;;19.40;69.21
10480;BME280;12789;42.610;23.040;2022-10-15T10:08:26;93838.16;;;19.13;67.73
10480;BME280;12789;42.610;23.040;2022-10-15T10:10:57;93835.22;;;19.83;69.32
10480;BME280;12789;42.610;23.040;2022-10-15T10:13:30;93835.78;;;20.79;66.95
10480;BME280;12789;42.610;23.040;2022-10-15T10:16:02;93845.31;;;20.67;68.35
10480;BME280;12789;42.610;23.040;2022-10-15T10:18:30;93834.16;;;20.65;66.99
10480;BME280;12789;42.610;23.040;2022-10-15T10:21:00;93828.56;;;21.72;63.63
10480;BME280;12789;42.610;23.040;2022-10-15T10:23:30;93816.75;;;21.81;64.43
10480;BME280;12789;42.610;23.040;2022-10-15T10:26:00;93812.44;;;20.50;62.89
10480;BME280;12789;42.610;23.040;2022-10-15T10:28:31;93815.91;;;20.57;63.74
10480;BME280;12789;42.610;23.040;2022-10-15T10:31:02;93829.38;;;21.01;64.27
10480;BME280;12789;42.610;23.040;2022-10-15T10:33:34;93814.19;;;19.83;64.33
10480;BME280;12789;42.610;23.040;2022-10-15T10:36:04;93816.94;;;20.69;64.16
10480;BME280;12789;42.610;23.040;2022-10-15T10:38:34;93824.09;;;21.53;62.11
10480;BME280;12789;42.610;23.040;2022-10-15T10:41:04;93825.31;;;20.86;62.70
10480;BME280;12789;42.610;23.040;2022-10-15T10:43:34;93810.66;;;20.77;63.10
10480;BME280;12789;42.610;23.040;2022-10-15T10:46:04;93805.41;;;19.70;63.91
10480;BME280;12789;42.610;23.040;2022-10-15T10:48:42;93830.59;;;19.52;66.37
10480;BME280;12789;42.610;23.040;2022-10-15T10:51:15;93819.59;;;20.16;64.01
10480;BME280;12789;42.610;23.040;2022-10-15T10:53:50;93811.84;;;20.01;64.75
10480;BME280;12789;42.610;23.040;2022-10-15T10:56:21;93809.38;;;20.40;64.76
10480;BME280;12789;42.610;23.040;2022-10-15T10:58:55;93799.47;;;19.95;63.85
10480;BME280;12789;42.610;23.040;2022-10-15T11:01:23;93805.50;;;19.89;62.56
10480;BME280;12789;42.610;23.040;2022-10-15T11:03:50;93797.81;;;20.35;62.57
10480;BME280;12789;42.610;23.040;2022-10-15T11:09:39;93812.28;;;19.71;65.10
10480;BME280;12789;42.610;23.040;2022-10-15T11:12:19;93818.09;;;18.84;67.12
10480;BME280;12789;42.610;23.040;2022-10-15T11:14:55;93825.31;;;18.05;67.85
10480;BME280;12789;42.610;23.040;2022-10-15T11:17:44;93832.56;;;18.74;66.96
10480;BME280;12789;42.610;23.040;2022-10-15T11:20:19;93830.66;;;19.31;67.29
10480;BME280;12789;42.610;23.040;2022-10-15T11:22:56;93829.97;;;18.59;69.66
10480;BME280;12789;42.610;23.040;2022-10-15T11:25:35;93829.41;;;18.43;69.26
10480;BME280;12789;42.610;23.040;2022-10-15T11:28:22;93823.84;;;18.52;68.54
10480;BME280;12789;42.610;23.040;2022-10-15T11:30:58;93822.03;;;18.32;76.98
10480;BME280;12789;42.610;23.040;2022-10-15T11:33:39;93808.25;;;19.14;67.51
10480;BME280;12789;42.610;23.040;2022-10-15T11:36:24;93820.28;;;19.50;71.94
10480;BME280;12789;42.610;23.040;2022-10-15T11:39:21;93822.91;;;19.57;74.16
10480;BME280;12789;42.610;23.040;2022-10-15T11:42:01;93818.03;;;19.87;67.59
10480;BME280;12789;42.610;23.040;2022-10-15T11:44:41;93822.31;;;18.58;67.83
10480;BME280;12789;42.610;23.040;2022-10-15T11:47:19;93810.69;;;18.46;67.75
10480;BME280;12789;42.610;23.040;2022-10-15T11:50:00;93816.06;;;19.28;67.33
10480;BME280;12789;42.610;23.040;2022-10-15T11:52:50;93807.53;;;18.99;67.31
10480;BME280;12789;42.610;23.040;2022-10-15T11:55:23;93808.78;;;19.24;67.23
10480;BME280;12789;42.610;23.040;2022-10-15T11:57:59;93811.63;;;19.29;65.82
10480;BME280;12789;42.610;23.040;2022-10-15T12:00:31;93819.53;;;19.08;64.46
10480;BME280;12789;42.610;23.040;2022-10-15T12:03:04;93815.81;;;19.51;64.57
10480;BME280;12789;42.610;23.040;2022-10-15T12:05:36;93816.13;;;19.35;63.28
10480;BME280;12789;42.610;23.040;2022-10-15T12:08:08;93814.16;;;18.74;65.55
10480;BME280;12789;42.610;23.040;2022-10-15T12:10:55;93818.22;;;19.18;65.78
10480;BME280;12789;42.610;23.040;2022-10-15T12:13:31;93818.38;;;20.05;64.18
10480;BME280;12789;42.610;23.040;2022-10-15T12:16:09;93820.28;;;19.84;64.92
10480;BME280;12789;42.610;23.040;2022-10-15T12:18:43;93822.75;;;20.52;64.19
10480;BME280;12789;42.610;23.040;2022-10-15T12:21:33;93815.34;;;20.08;66.55
10480;BME280;12789;42.610;23.040;2022-10-15T12:24:01;93812.00;;;18.77;65.92
10480;BME280;12789;42.610;23.040;2022-10-15T12:26:30;93815.16;;;18.73;67.62
10480;BME280;12789;42.610;23.040;2022-10-15T12:29:01;93792.69;;;19.40;66.96
10480;BME280;12789;42.610;23.040;2022-10-15T12:31:49;93812.09;;;18.48;66.70
10480;BME280;12789;42.610;23.040;2022-10-15T12:34:30;93816.13;;;19.35;67.06
10480;BME280;12789;42.610;23.040;2022-10-15T12:37:04;93808.28;;;21.40;62.84
10480;BME280;12789;42.610;23.040;2022-10-15T12:39:35;93802.38;;;20.07;63.89
10480;BME280;12789;42.610;23.040;2022-10-15T12:42:04;93809.59;;;19.98;64.66
10480;BME280;12789;42.610;23.040;2022-10-15T12:44:47;93814.72;;;19.39;65.63
10480;BME280;12789;42.610;23.040;2022-10-15T12:47:14;93799.88;;;19.25;66.02
10480;BME280;12789;42.610;23.040;2022-10-15T12:50:04;93797.09;;;19.12;66.18
10480;BME280;12789;42.610;23.040;2022-10-15T12:52:51;93799.53;;;19.68;64.45
10480;BME280;12789;42.610;23.040;2022-10-15T12:55:26;93797.94;;;20.14;63.12
10480;BME280;12789;42.610;23.040;2022-10-15T12:57:56;93799.81;;;19.46;65.11
10480;BME280;12789;42.610;23.040;2022-10-15T13:00:34;93800.25;;;19.22;65.17
10480;BME280;12789;42.610;23.040;2022-10-15T13:03:17;93801.03;;;18.95;65.45
10480;BME280;12789;42.610;23.040;2022-10-15T13:05:47;93794.34;;;18.50;66.82
10480;BME280;12789;42.610;23.040;2022-10-15T13:08:17;93806.16;;;18.40;68.57
10480;BME280;12789;42.610;23.040;2022-10-15T13:10:50;93801.41;;;18.71;67.65
10480;BME280;12789;42.610;23.040;2022-10-15T13:13:21;93794.00;;;18.18;68.38
10480;BME280;12789;42.610;23.040;2022-10-15T13:15:56;93794.63;;;18.34;67.54
10480;BME280;12789;42.610;23.040;2022-10-15T13:18:24;93794.41;;;18.21;67.84
10480;BME280;12789;42.610;23.040;2022-10-15T13:20:52;93791.25;;;17.91;70.24